»·PEaware :: N3021C KSDM-KCRQ

N3021C :: KSDM-KCRQ

FLIGHT INFORMATION

Flight Status: Arrived
Operator: Privately registered:
United States
More flights under this callsign
Pilot: Mark B. (9455)
Aircraft: CESSNA 172 SKYHAWK
(C172)
More flights by this aircraft type
Origin: KSDM Brown Mun
United States
Destination: KCRQ McClellan-Palomar
United States
More flights between these airports :: More routes between these airports
Route: +MZB V23 OCN
File this flight plan on PilotEdge
Remarks:
Altitude:
(Current/Filed)
4,000ft
Speed:
(Current/Filed)
115kts
Departed: 03-Jan-18 08:57 PM
Arrived: 03-Jan-18 09:33 PM
Distance/Time
Traveled:
37nm/0:36
Distance/Time
To Go:
Arrived

Flight Plot

Page will automatically refresh every two minutes.


Map Options




Map Legend


Flown Route
Filed Route
Departure Airport
Arrival Airport
Navaid (VOR, NDB)
Fix

Horizontal Profiles

Position Reports

Time Latitude Longitude Heading Altitude Ground
Speed
03-Jan-18 20:25 32.569965 -116.987201 287 529ft 0kts
03-Jan-18 20:26 32.569965 -116.987201 287 529ft 0kts
03-Jan-18 20:27 32.569965 -116.987201 287 529ft 0kts
03-Jan-18 20:28 32.569965 -116.987201 287 529ft 0kts
03-Jan-18 20:29 32.569965 -116.987201 287 529ft 0kts
03-Jan-18 20:30 32.569965 -116.987201 287 529ft 0kts
03-Jan-18 20:31 32.569965 -116.987201 287 529ft 0kts
03-Jan-18 20:32 32.569965 -116.987201 287 529ft 0kts
03-Jan-18 20:33 32.569965 -116.987201 287 529ft 0kts
03-Jan-18 20:34 32.569965 -116.987201 287 529ft 0kts
03-Jan-18 20:35 32.569965 -116.987201 287 529ft 0kts
03-Jan-18 20:36 32.569965 -116.987201 287 529ft 0kts
03-Jan-18 20:37 32.569965 -116.987201 287 529ft 0kts
03-Jan-18 20:38 32.569965 -116.987201 287 529ft 0kts
03-Jan-18 20:39 32.569965 -116.987201 287 529ft 0kts
03-Jan-18 20:40 32.569965 -116.987201 287 529ft 0kts
03-Jan-18 20:41 32.569965 -116.987201 287 529ft 0kts
03-Jan-18 20:42 32.569965 -116.987201 287 529ft 0kts
03-Jan-18 20:43 32.569965 -116.987201 287 529ft 0kts
03-Jan-18 20:44 32.569965 -116.987201 287 529ft 0kts
03-Jan-18 20:45 32.569965 -116.987201 287 529ft 0kts
03-Jan-18 20:46 32.569965 -116.987201 287 529ft 0kts
03-Jan-18 20:47 32.569965 -116.987201 287 529ft 0kts
03-Jan-18 20:48 32.569965 -116.987201 287 529ft 0kts
03-Jan-18 20:49 32.569965 -116.987201 287 529ft 0kts
03-Jan-18 20:50 32.569965 -116.987201 287 529ft 0kts
03-Jan-18 20:51 32.569965 -116.987201 287 529ft 0kts
03-Jan-18 20:52 32.569965 -116.987201 287 529ft 0kts
03-Jan-18 20:53 32.569965 -116.987201 287 529ft 0kts
03-Jan-18 20:54 32.569965 -116.987201 287 529ft 0kts
03-Jan-18 20:55 32.569981 -116.987231 304 529ft 1kts
03-Jan-18 20:56 32.571034 -116.986226 73 529ft 7kts
03-Jan-18 20:57 32.570309 -116.980024 94 529ft 25kts
03-Jan-18 20:58 32.569643 -116.972049 96 529ft 23kts
03-Jan-18 20:59 32.570650 -116.968330 4 529ft 0kts
03-Jan-18 21:00 32.570650 -116.968330 4 529ft 0kts
03-Jan-18 21:01 32.570650 -116.968330 4 529ft 0kts
03-Jan-18 21:02 32.570650 -116.968330 4 529ft 0kts
03-Jan-18 21:03 32.571791 -116.969761 275 529ft 47kts
03-Jan-18 21:04 32.574852 -116.996825 289 1402ft 89kts
03-Jan-18 21:05 32.583813 -117.023997 292 2520ft 86kts
03-Jan-18 21:06 32.593282 -117.050493 291 3525ft 87kts
03-Jan-18 21:07 32.607812 -117.076464 315 4073ft 118kts
03-Jan-18 21:08 32.633782 -117.100080 324 4036ft 117kts
03-Jan-18 21:09 32.661715 -117.118624 330 4036ft 113kts
03-Jan-18 21:10 32.685386 -117.143704 319 4018ft 116kts
03-Jan-18 21:11 32.711461 -117.166635 324 3978ft 118kts
03-Jan-18 21:12 32.739021 -117.185476 323 4042ft 114kts
03-Jan-18 21:13 32.765026 -117.208181 327 3956ft 118kts
03-Jan-18 21:14 32.793414 -117.228166 340 3856ft 117kts
03-Jan-18 21:15 32.822597 -117.242865 336 3985ft 109kts
03-Jan-18 21:16 32.847007 -117.255001 337 3955ft 117kts
03-Jan-18 21:17 32.882935 -117.268777 343 3904ft 116kts
03-Jan-18 21:18 32.908427 -117.278808 340 3904ft 113kts
03-Jan-18 21:19 32.938696 -117.290014 341 3917ft 114kts
03-Jan-18 21:20 32.972030 -117.310223 335 3904ft 116kts
03-Jan-18 21:21 33.001830 -117.311382 45 3938ft 114kts
03-Jan-18 21:22 33.013364 -117.283169 69 3978ft 111kts
03-Jan-18 21:23 33.026744 -117.248615 55 3926ft 114kts
03-Jan-18 21:24 33.042721 -117.215571 62 3896ft 116kts
03-Jan-18 21:25 33.057972 -117.182150 60 3914ft 114kts
03-Jan-18 21:26 33.073535 -117.148332 59 3934ft 113kts
03-Jan-18 21:27 33.091929 -117.116188 61 3969ft 112kts
03-Jan-18 21:28 33.105971 -117.082016 64 3932ft 116kts
03-Jan-18 21:29 33.120012 -117.047520 60 3940ft 114kts
03-Jan-18 21:30 33.138662 -117.015162 19 3771ft 120kts
03-Jan-18 21:31 33.158466 -117.039808 285 3458ft 109kts
03-Jan-18 21:32 33.160202 -117.074113 257 3456ft 98kts
03-Jan-18 21:33 33.155478 -117.106341 260 3325ft 97kts
03-Jan-18 21:34 33.150820 -117.138395 258 2792ft 95kts
03-Jan-18 21:35 33.145771 -117.170366 261 2236ft 97kts
03-Jan-18 21:36 33.140518 -117.202337 260 1641ft 97kts
03-Jan-18 21:37 33.135718 -117.234225 257 1033ft 96kts
03-Jan-18 21:38 33.130677 -117.264463 259 594ft 83kts
03-Jan-18 21:39 33.127730 -117.279724 226 335ft 14kts

Navigation Log

Ident Type
Flight plan parsing failed, navigation log unavailable